Time;durP1;ratioP1;P1;durP2;ratioP2;P2;SDS_P1;SDS_P2;PMS_P1;PMS_P2;Temp;Humidity;BMP_temperature;BMP_pressure;BME280_temperature;BME280_humidity;BME280_pressure;Samples;Min_cycle;Max_cycle;Signal;HPM_P1;HPM_P2
2022/03/21 00:00:56;;;;;;;7.20;5.60;;;11.20;92.20;;;;;;4988617;28;20158;-84
2022/03/21 00:03:30;;;;;;;7.93;5.63;;;11.20;91.70;;;;;;5004937;28;20046;-83
2022/03/21 00:06:01;;;;;;;7.70;5.68;;;11.20;91.80;;;;;;5021639;28;20050;-84
2022/03/21 00:08:29;;;;;;;7.38;5.55;;;11.20;91.50;;;;;;4987761;28;20045;-84
2022/03/21 00:10:58;;;;;;;8.43;5.15;;;11.20;91.60;;;;;;4978506;28;20038;-85
2022/03/21 00:13:26;;;;;;;7.43;6.10;;;11.20;91.50;;;;;;5003555;28;20053;-85
2022/03/21 00:15:56;;;;;;;7.13;6.20;;;11.20;91.60;;;;;;4979792;28;20070;-84
2022/03/21 00:18:26;;;;;;;6.82;5.30;;;11.10;91.80;;;;;;5006983;28;20611;-84
2022/03/21 00:20:54;;;;;;;7.88;5.70;;;11.10;92.00;;;;;;5003577;28;20102;-83
2022/03/21 00:23:25;;;;;;;6.57;5.68;;;11.10;92.00;;;;;;4971789;28;20082;-84
2022/03/21 00:25:54;;;;;;;7.32;5.68;;;11.00;92.20;;;;;;5033271;28;20057;-83
2022/03/21 00:28:22;;;;;;;8.50;6.22;;;10.90;92.40;;;;;;4995079;28;20648;-84
2022/03/21 00:30:51;;;;;;;8.82;5.70;;;11.00;92.50;;;;;;4991793;28;20050;-84
2022/03/21 00:33:20;;;;;;;7.38;5.60;;;11.00;92.60;;;;;;5012014;28;20385;-83
2022/03/21 00:35:50;;;;;;;7.25;5.40;;;10.90;92.60;;;;;;5011567;28;20070;-83
2022/03/21 00:38:19;;;;;;;8.68;5.32;;;11.00;92.60;;;;;;4975608;28;20460;-84
2022/03/21 00:40:49;;;;;;;7.30;5.43;;;11.00;92.70;;;;;;5025908;28;20054;-83
2022/03/21 00:43:22;;;;;;;7.38;5.78;;;11.00;92.70;;;;;;4996113;28;20057;-84
2022/03/21 00:45:52;;;;;;;7.93;5.13;;;10.90;92.90;;;;;;4995029;28;20141;-84
2022/03/21 00:48:21;;;;;;;7.03;4.95;;;10.90;93.10;;;;;;4990626;28;20050;-84
2022/03/21 00:50:49;;;;;;;7.68;5.10;;;10.90;93.10;;;;;;4990620;28;20141;-83
2022/03/21 00:53:18;;;;;;;8.55;5.40;;;10.90;93.10;;;;;;4979762;28;20530;-84
2022/03/21 00:55:48;;;;;;;7.18;5.72;;;10.80;93.20;;;;;;5006965;28;20153;-84
2022/03/21 00:58:17;;;;;;;6.82;5.88;;;10.70;93.40;;;;;;4990394;28;20092;-84
2022/03/21 01:00:45;;;;;;;7.20;5.60;;;10.80;93.40;;;;;;5003546;28;20038;-84
2022/03/21 01:03:14;;;;;;;9.02;5.43;;;10.70;93.50;;;;;;5003505;28;20049;-84
2022/03/21 01:05:43;;;;;;;8.52;5.65;;;10.80;93.50;;;;;;4994307;28;20045;-84
2022/03/21 01:08:11;;;;;;;5.88;5.28;;;10.80;93.50;;;;;;5025844;28;20189;-83
2022/03/21 01:10:39;;;;;;;7.15;5.65;;;10.80;93.50;;;;;;4977489;28;20046;-83
2022/03/21 01:13:09;;;;;;;7.68;5.95;;;10.70;93.50;;;;;;4975110;28;20046;-83
2022/03/21 01:15:37;;;;;;;5.80;4.85;;;10.80;93.70;;;;;;4988531;28;20053;-82
2022/03/21 01:18:05;;;;;;;6.75;5.20;;;10.90;93.60;;;;;;4991298;28;20125;-83
2022/03/21 01:20:33;;;;;;;7.20;5.57;;;10.80;93.60;;;;;;4977821;28;20377;-83
2022/03/21 01:23:02;;;;;;;9.18;6.18;;;10.80;93.80;;;;;;5020120;28;20590;-84
2022/03/21 01:25:30;;;;;;;6.35;5.38;;;10.80;93.80;;;;;;4975221;28;20050;-83
2022/03/21 01:27:58;;;;;;;8.50;5.80;;;10.80;93.90;;;;;;4973702;28;20053;-83
2022/03/21 01:30:27;;;;;;;7.28;5.68;;;10.80;94.10;;;;;;4979569;28;20046;-83
2022/03/21 01:32:56;;;;;;;7.13;5.90;;;10.70;94.40;;;;;;4990884;28;20093;-83
2022/03/21 01:35:24;;;;;;;7.80;5.55;;;10.70;94.70;;;;;;4974390;28;20070;-84
2022/03/21 01:37:52;;;;;;;7.72;5.55;;;10.70;94.80;;;;;;5015427;28;20149;-84
2022/03/21 01:40:20;;;;;;;6.78;5.68;;;10.60;95.30;;;;;;4974188;28;20046;-84
2022/03/21 01:42:48;;;;;;;7.85;5.30;;;10.70;95.30;;;;;;5008894;28;20051;-83
2022/03/21 01:45:19;;;;;;;7.13;6.15;;;10.70;95.60;;;;;;4974852;28;20053;-84
2022/03/21 01:47:49;;;;;;;6.70;5.28;;;10.70;95.40;;;;;;4982890;28;20082;-85
2022/03/21 01:50:17;;;;;;;7.78;5.68;;;10.60;95.40;;;;;;4978371;28;20051;-84
2022/03/21 01:52:46;;;;;;;7.03;5.28;;;10.60;95.40;;;;;;4990207;28;20042;-83
2022/03/21 01:58:02;;;;;;;6.75;5.63;;;10.50;96.00;;;;;;5013942;28;20049;-84
2022/03/21 02:00:30;;;;;;;7.35;5.20;;;10.50;95.90;;;;;;4985381;28;20048;-83
2022/03/21 02:03:00;;;;;;;8.05;5.60;;;10.50;96.20;;;;;;5013035;28;20427;-82
2022/03/21 02:05:34;;;;;;;7.50;5.85;;;10.50;96.40;;;;;;4985444;28;20045;-83
2022/03/21 02:08:02;;;;;;;7.32;5.43;;;10.50;96.10;;;;;;5013187;28;20056;-83
2022/03/21 02:10:31;;;;;;;8.02;5.18;;;10.40;95.90;;;;;;5015900;28;20118;-83
2022/03/21 02:12:59;;;;;;;7.72;5.75;;;10.30;95.90;;;;;;5000239;28;20145;-82
2022/03/21 02:15:27;;;;;;;8.52;5.45;;;10.30;96.40;;;;;;4985320;28;20108;-83
2022/03/21 02:18:02;;;;;;;6.95;5.28;;;10.30;96.20;;;;;;4993420;28;20077;-82
2022/03/21 02:20:34;;;;;;;8.63;5.72;;;10.30;96.10;;;;;;4973622;28;20047;-82
2022/03/21 02:23:08;;;;;;;10.23;5.72;;;10.30;95.70;;;;;;4989888;28;20044;-83
2022/03/21 02:25:44;;;;;;;8.18;5.00;;;10.30;95.80;;;;;;5008834;28;20050;-83
2022/03/21 02:28:15;;;;;;;6.47;5.18;;;10.30;95.80;;;;;;4991025;28;20152;-80
2022/03/21 02:30:46;;;;;;;7.25;4.93;;;10.30;95.70;;;;;;4981817;28;20042;-80
2022/03/21 02:33:17;;;;;;;8.13;5.55;;;10.30;95.50;;;;;;5029613;28;20424;-80
2022/03/21 02:35:47;;;;;;;6.38;4.97;;;10.20;95.60;;;;;;5007393;28;20050;-80
2022/03/21 02:38:18;;;;;;;12.13;6.07;;;10.20;95.60;;;;;;4992604;28;20460;-81
2022/03/21 02:40:48;;;;;;;6.22;5.07;;;10.20;95.60;;;;;;4992640;28;20038;-83
2022/03/21 02:43:17;;;;;;;6.00;4.97;;;10.20;96.30;;;;;;4972118;28;20046;-83
2022/03/21 02:45:45;;;;;;;7.32;4.75;;;10.10;96.20;;;;;;5015198;28;20083;-84
2022/03/21 02:48:14;;;;;;;6.22;4.93;;;10.00;96.20;;;;;;4988829;28;20080;-84
2022/03/21 02:50:49;;;;;;;6.60;5.10;;;10.00;95.70;;;;;;4997851;28;20046;-84
2022/03/21 02:53:20;;;;;;;5.85;4.75;;;10.00;95.90;;;;;;4986340;28;20475;-84
2022/03/21 02:55:53;;;;;;;7.22;4.53;;;9.90;96.10;;;;;;4978345;28;20141;-83
2022/03/21 02:58:22;;;;;;;6.72;4.72;;;10.00;96.00;;;;;;4980500;28;20108;-82
2022/03/21 03:00:50;;;;;;;6.50;4.55;;;9.90;96.00;;;;;;4978589;28;20130;-82
2022/03/21 03:03:18;;;;;;;5.13;4.57;;;9.80;96.30;;;;;;4989597;28;20407;-84
2022/03/21 03:05:47;;;;;;;5.60;4.28;;;9.80;96.20;;;;;;4991198;28;20089;-83
2022/03/21 03:08:15;;;;;;;6.55;4.72;;;9.80;96.20;;;;;;4990116;28;20046;-83
2022/03/21 03:10:43;;;;;;;8.55;4.80;;;9.80;96.70;;;;;;4975893;28;20066;-83
2022/03/21 03:13:13;;;;;;;4.65;3.90;;;9.80;96.70;;;;;;4990800;28;20085;-83
2022/03/21 03:15:41;;;;;;;6.97;4.95;;;9.80;96.70;;;;;;4985201;28;20294;-83
2022/03/21 03:18:09;;;;;;;5.95;4.72;;;9.90;96.70;;;;;;4989024;28;20133;-83
2022/03/21 03:20:38;;;;;;;6.28;4.70;;;9.90;96.70;;;;;;4976764;28;20046;-82
2022/03/21 03:23:07;;;;;;;7.05;4.95;;;9.80;96.70;;;;;;4987514;28;20061;-82
2022/03/21 03:25:36;;;;;;;6.55;5.13;;;9.70;96.70;;;;;;5007672;28;20043;-82
2022/03/21 03:28:05;;;;;;;6.03;4.40;;;9.70;96.70;;;;;;5007347;28;20046;-82
2022/03/21 03:30:35;;;;;;;7.10;4.45;;;9.70;96.70;;;;;;4995756;28;20049;-83
2022/03/21 03:33:03;;;;;;;6.40;5.13;;;9.60;96.70;;;;;;4991443;28;20564;-83
2022/03/21 03:35:32;;;;;;;8.85;4.63;;;9.60;96.70;;;;;;4990524;28;20042;-83
2022/03/21 03:38:01;;;;;;;6.60;4.80;;;9.60;96.70;;;;;;4974262;28;20058;-83
2022/03/21 03:40:29;;;;;;;6.43;4.80;;;9.50;96.70;;;;;;5004438;28;20081;-82
2022/03/21 03:42:58;;;;;;;5.82;4.57;;;9.60;96.70;;;;;;5003967;28;20257;-83
2022/03/21 03:45:26;;;;;;;5.95;4.57;;;9.50;96.40;;;;;;4972758;28;20544;-83
2022/03/21 03:47:56;;;;;;;6.35;4.80;;;9.50;95.80;;;;;;4989824;28;20089;-82
2022/03/21 03:50:24;;;;;;;5.82;4.68;;;9.40;95.10;;;;;;4971890;28;20532;-83
2022/03/21 03:52:52;;;;;;;6.07;4.30;;;9.50;95.00;;;;;;4979083;28;20078;-82
2022/03/21 03:55:21;;;;;;;5.22;4.05;;;9.40;94.80;;;;;;5004534;28;20056;-82
2022/03/21 03:57:49;;;;;;;5.65;4.15;;;9.40;95.00;;;;;;5007656;28;20116;-82
2022/03/21 04:00:18;;;;;;;5.88;4.30;;;9.30;95.30;;;;;;4992594;28;20097;-83
2022/03/21 04:05:35;;;;;;;6.05;4.40;;;9.20;95.70;;;;;;4987952;28;20085;-83
2022/03/21 04:08:04;;;;;;;5.97;4.78;;;9.10;95.80;;;;;;4991881;28;20058;-82
2022/03/21 04:10:33;;;;;;;6.03;4.38;;;9.10;96.00;;;;;;4971068;28;20046;-87
2022/03/21 04:13:01;;;;;;;4.95;3.83;;;9.10;96.50;;;;;;5002844;28;20046;-83
2022/03/21 04:15:30;;;;;;;5.25;3.78;;;9.00;96.00;;;;;;4994357;28;20046;-83
2022/03/21 04:18:01;;;;;;;9.00;4.47;;;9.10;95.60;;;;;;5002057;28;20112;-83
2022/03/21 04:20:31;;;;;;;6.78;4.40;;;9.10;94.70;;;;;;4991950;28;20046;-83
2022/03/21 04:23:01;;;;;;;4.63;3.55;;;9.10;93.90;;;;;;4987368;28;20109;-83
2022/03/21 04:25:29;;;;;;;4.85;3.53;;;9.00;93.20;;;;;;4987721;28;20050;-83
2022/03/21 04:27:58;;;;;;;5.43;3.85;;;9.00;93.00;;;;;;4975960;28;20943;-84
2022/03/21 04:30:26;;;;;;;6.22;4.10;;;9.10;92.80;;;;;;4979139;28;20508;-82
2022/03/21 04:32:54;;;;;;;4.90;3.40;;;9.00;92.40;;;;;;4988569;28;20058;-83
2022/03/21 04:35:23;;;;;;;5.05;3.38;;;9.00;92.20;;;;;;4985868;28;20047;-84
2022/03/21 04:37:51;;;;;;;5.22;3.65;;;9.00;91.40;;;;;;4990208;28;20043;-83
2022/03/21 04:40:23;;;;;;;5.90;3.30;;;8.90;91.40;;;;;;4973634;28;20042;-83
2022/03/21 04:42:51;;;;;;;3.83;3.30;;;9.00;91.30;;;;;;4969024;28;20055;-83
2022/03/21 04:45:21;;;;;;;5.28;3.65;;;9.00;91.20;;;;;;5001061;28;20109;-79
2022/03/21 04:47:49;;;;;;;5.32;3.60;;;9.00;90.80;;;;;;4983324;28;20051;-80
2022/03/21 04:50:17;;;;;;;5.28;3.88;;;9.10;89.90;;;;;;4974827;28;20484;-80
2022/03/21 04:52:46;;;;;;;3.83;2.95;;;9.20;89.30;;;;;;4985473;28;20047;-79
2022/03/21 04:55:15;;;;;;;5.28;3.50;;;9.10;89.10;;;;;;4980997;28;20057;-80
2022/03/21 04:57:45;;;;;;;4.10;3.17;;;9.20;89.10;;;;;;4979068;28;20042;-80
2022/03/21 05:00:14;;;;;;;5.10;3.45;;;9.20;88.50;;;;;;4997964;28;20058;-79
2022/03/21 05:02:42;;;;;;;3.75;2.97;;;9.10;88.70;;;;;;4981893;28;20059;-79
2022/03/21 05:05:11;;;;;;;4.20;3.17;;;9.10;88.80;;;;;;4982064;28;20121;-79
2022/03/21 05:07:40;;;;;;;7.38;3.45;;;9.10;88.60;;;;;;4981743;28;20094;-80
2022/03/21 05:10:09;;;;;;;7.05;3.55;;;9.10;87.80;;;;;;4987151;28;20445;-79
2022/03/21 05:12:38;;;;;;;4.65;3.10;;;9.10;87.50;;;;;;4969598;28;20113;-80
2022/03/21 05:15:09;;;;;;;5.97;3.17;;;9.10;87.60;;;;;;4974085;28;20050;-80
2022/03/21 05:17:38;;;;;;;4.93;2.70;;;9.00;87.60;;;;;;4985928;28;20101;-79
2022/03/21 05:20:16;;;;;;;5.10;2.92;;;9.10;87.70;;;;;;4994949;28;20188;-80
2022/03/21 05:30:57;;;;;;;3.55;2.85;;;9.10;87.80;;;;;;4968590;28;20050;-79
2022/03/21 05:31:12;;;;;;;4.82;3.17;;;9.20;88.50;;;;;;4984134;28;20145;-80
2022/03/21 05:36:28;;;;;;;5.10;3.00;;;9.20;89.30;;;;;;4976029;28;20056;-80
2022/03/21 05:38:57;;;;;;;6.35;2.92;;;9.20;89.30;;;;;;4996401;28;20050;-80
2022/03/21 05:41:26;;;;;;;4.03;2.92;;;9.30;89.40;;;;;;5005497;28;20105;-79
2022/03/21 05:43:54;;;;;;;4.55;2.90;;;9.30;89.50;;;;;;4977492;28;20092;-80
2022/03/21 05:46:24;;;;;;;4.07;2.65;;;9.30;89.40;;;;;;4977383;28;20544;-79
2022/03/21 05:48:59;;;;;;;7.13;2.80;;;9.40;89.20;;;;;;5005742;28;20081;-80
2022/03/21 05:51:29;;;;;;;4.13;2.70;;;9.40;89.30;;;;;;4987577;28;20046;-80
2022/03/21 05:53:59;;;;;;;4.80;2.85;;;9.40;89.20;;;;;;4987964;28;20048;-80
2022/03/21 05:56:28;;;;;;;4.65;2.78;;;9.40;88.70;;;;;;4987545;28;20096;-80
2022/03/21 05:59:00;;;;;;;6.00;2.90;;;9.40;88.80;;;;;;5003299;28;20042;-79
2022/03/21 06:01:29;;;;;;;5.80;2.90;;;9.50;88.60;;;;;;4967127;28;20040;-79
2022/03/21 06:03:58;;;;;;;4.88;3.15;;;9.60;88.40;;;;;;5008170;28;20054;-79
2022/03/21 06:06:26;;;;;;;5.60;2.70;;;9.60;88.30;;;;;;4989608;28;20053;-79
2022/03/21 06:08:55;;;;;;;5.50;2.97;;;9.70;87.60;;;;;;4977530;28;20101;-79
2022/03/21 06:11:23;;;;;;;4.15;2.58;;;9.70;87.20;;;;;;4971320;28;20570;-79
2022/03/21 06:13:51;;;;;;;7.15;2.78;;;9.70;86.80;;;;;;4975473;28;20050;-79
2022/03/21 06:16:19;;;;;;;6.70;3.05;;;9.70;86.60;;;;;;4993343;28;20700;-79
2022/03/21 06:18:51;;;;;;;4.05;2.83;;;9.70;86.60;;;;;;5015852;28;20093;-79
2022/03/21 06:21:19;;;;;;;4.78;2.90;;;9.70;86.80;;;;;;4974372;28;20694;-79
2022/03/21 06:23:48;;;;;;;4.72;3.00;;;9.80;86.90;;;;;;4971706;28;20038;-79
2022/03/21 06:26:17;;;;;;;4.32;3.17;;;9.90;86.60;;;;;;4975883;28;20096;-80
2022/03/21 06:28:46;;;;;;;4.18;2.70;;;9.90;86.20;;;;;;5007361;28;20054;-80
2022/03/21 06:31:15;;;;;;;7.75;3.10;;;9.90;85.90;;;;;;4976250;28;20049;-79
2022/03/21 06:33:44;;;;;;;7.22;3.13;;;10.00;86.10;;;;;;4997065;28;20042;-80
2022/03/21 06:36:14;;;;;;;4.57;3.00;;;10.10;86.60;;;;;;5010771;28;20105;-79
2022/03/21 06:38:43;;;;;;;5.40;2.83;;;10.10;86.50;;;;;;5007849;28;20042;-79
2022/03/21 06:41:11;;;;;;;4.05;2.53;;;10.00;87.30;;;;;;4991777;28;20051;-79
2022/03/21 06:43:40;;;;;;;4.93;2.78;;;10.10;87.90;;;;;;5003297;28;20623;-79
2022/03/21 06:46:08;;;;;;;4.75;2.92;;;10.20;88.70;;;;;;4972363;28;20046;-79
2022/03/21 06:48:36;;;;;;;6.85;3.00;;;10.30;89.80;;;;;;5003583;28;20054;-79
2022/03/21 06:51:04;;;;;;;5.22;3.05;;;10.30;90.80;;;;;;5013163;28;20069;-79
2022/03/21 06:53:33;;;;;;;7.95;3.33;;;10.40;91.40;;;;;;4973690;28;20805;-79
2022/03/21 06:56:01;;;;;;;7.78;3.22;;;10.50;92.00;;;;;;5004426;28;20073;-80
2022/03/21 06:58:29;;;;;;;7.10;3.17;;;10.40;92.20;;;;;;4985687;28;20157;-79
2022/03/21 07:00:57;;;;;;;6.15;3.25;;;10.40;92.30;;;;;;4989858;28;20051;-79
2022/03/21 07:03:26;;;;;;;6.53;3.58;;;10.50;92.70;;;;;;4990197;28;20046;-79
2022/03/21 07:05:55;;;;;;;4.50;3.03;;;10.60;92.90;;;;;;4995882;28;20088;-79
2022/03/21 07:08:29;;;;;;;7.07;3.47;;;10.60;92.80;;;;;;4988942;28;20074;-79
2022/03/21 07:10:59;;;;;;;4.28;3.22;;;10.70;92.90;;;;;;4989677;28;20389;-79
2022/03/21 07:13:27;;;;;;;4.47;3.55;;;10.70;92.10;;;;;;4994544;28;20046;-79
2022/03/21 07:15:56;;;;;;;4.43;3.10;;;10.80;92.30;;;;;;4987384;28;20046;-80
2022/03/21 07:18:25;;;;;;;5.47;3.35;;;10.90;92.40;;;;;;4994701;28;20724;-80
2022/03/21 07:20:53;;;;;;;5.95;3.15;;;11.00;92.00;;;;;;4976444;28;20050;-79
2022/03/21 07:23:21;;;;;;;7.32;3.15;;;10.90;91.20;;;;;;4989413;28;20103;-79
2022/03/21 07:25:49;;;;;;;5.85;3.10;;;10.90;91.60;;;;;;5002904;28;20034;-79
2022/03/21 07:28:19;;;;;;;3.10;2.63;;;11.00;91.50;;;;;;4972297;28;20046;-80
2022/03/21 07:31:10;;;;;;;5.18;2.88;;;11.00;85.80;;;;;;5002370;28;20101;-79
2022/03/21 07:33:39;;;;;;;3.72;2.97;;;11.10;84.80;;;;;;4987981;28;20039;-79
2022/03/21 07:36:07;;;;;;;5.82;2.88;;;11.10;84.10;;;;;;5012417;28;20523;-79
2022/03/21 07:38:36;;;;;;;4.03;3.13;;;11.20;83.20;;;;;;4985658;28;20051;-79
2022/03/21 07:41:07;;;;;;;3.85;2.53;;;11.20;83.30;;;;;;4975137;28;20046;-79
2022/03/21 07:43:37;;;;;;;4.18;3.13;;;11.30;82.90;;;;;;5002020;28;20046;-80
2022/03/21 07:48:52;;;;;;;5.82;2.53;;;11.30;81.70;;;;;;5009539;28;20511;-79
2022/03/21 07:51:20;;;;;;;4.68;2.80;;;11.40;81.10;;;;;;5002197;28;20049;-80
2022/03/21 07:53:48;;;;;;;3.80;2.83;;;11.50;80.70;;;;;;4974882;28;20133;-79
2022/03/21 07:56:23;;;;;;;5.13;3.30;;;11.50;80.90;;;;;;4975753;28;20056;-79
2022/03/21 07:58:52;;;;;;;4.57;2.55;;;11.60;80.40;;;;;;4973157;28;20122;-80
2022/03/21 08:01:20;;;;;;;4.70;2.63;;;11.70;79.60;;;;;;5002555;28;20050;-80
2022/03/21 08:03:49;;;;;;;4.15;2.80;;;11.70;79.60;;;;;;4975765;28;21129;-80
2022/03/21 08:06:18;;;;;;;3.63;2.92;;;11.70;79.30;;;;;;4988587;28;20046;-82
2022/03/21 08:08:48;;;;;;;3.55;2.78;;;11.80;79.40;;;;;;4997251;28;20072;-84
2022/03/21 08:11:17;;;;;;;5.80;3.25;;;11.80;79.00;;;;;;4996560;28;20820;-84
2022/03/21 08:13:49;;;;;;;3.78;2.75;;;11.90;79.20;;;;;;4982076;28;20046;-84
2022/03/21 08:16:20;;;;;;;4.32;2.83;;;11.90;78.50;;;;;;4993196;28;20086;-84
2022/03/21 08:18:50;;;;;;;4.07;3.10;;;12.00;79.30;;;;;;4988228;28;20053;-84
2022/03/21 08:21:19;;;;;;;3.72;2.90;;;12.00;79.00;;;;;;4991318;28;20033;-82
2022/03/21 08:23:49;;;;;;;3.30;2.75;;;12.00;78.80;;;;;;4987911;28;20048;-81
2022/03/21 08:26:19;;;;;;;3.42;2.90;;;12.00;78.60;;;;;;4975365;28;20054;-81
2022/03/21 08:28:47;;;;;;;4.93;3.40;;;12.00;78.40;;;;;;4973316;28;20034;-84
2022/03/21 08:31:15;;;;;;;6.13;3.00;;;12.10;79.40;;;;;;4987738;28;20057;-80
2022/03/21 08:33:45;;;;;;;3.60;2.95;;;12.20;79.40;;;;;;5020022;28;20050;-85
2022/03/21 08:36:13;;;;;;;7.63;3.28;;;12.20;78.30;;;;;;5010179;28;20500;-87
2022/03/21 08:38:41;;;;;;;5.43;3.42;;;12.30;79.20;;;;;;4978466;28;20112;-84
2022/03/21 08:41:09;;;;;;;4.82;3.17;;;12.40;78.20;;;;;;5007498;28;20065;-84
2022/03/21 08:43:37;;;;;;;6.75;3.13;;;12.40;78.90;;;;;;4990224;28;20497;-80
2022/03/21 08:46:05;;;;;;;6.45;3.33;;;12.50;79.40;;;;;;5007497;28;20584;-81
2022/03/21 08:51:43;;;;;;;4.40;3.38;;;12.60;79.80;;;;;;5009602;28;20046;-79
2022/03/21 08:54:11;;;;;;;6.45;3.38;;;12.70;79.90;;;;;;4990244;28;20050;-81
2022/03/21 08:56:39;;;;;;;4.82;2.97;;;12.80;79.50;;;;;;4992803;28;20061;-82
2022/03/21 08:59:07;;;;;;;5.82;3.28;;;12.90;79.50;;;;;;5006303;28;20040;-81
2022/03/21 09:01:35;;;;;;;7.20;3.60;;;12.90;80.00;;;;;;4978794;28;20403;-80
2022/03/21 09:04:04;;;;;;;6.22;3.63;;;13.00;79.40;;;;;;5010589;28;20069;-80
2022/03/21 09:06:32;;;;;;;6.35;3.42;;;13.00;79.90;;;;;;4992750;28;20078;-81
2022/03/21 09:09:02;;;;;;;4.05;3.22;;;13.00;80.40;;;;;;4992373;28;20048;-81
2022/03/21 09:11:30;;;;;;;5.03;3.53;;;13.10;80.10;;;;;;4994810;28;20050;-81
2022/03/21 09:13:58;;;;;;;5.05;3.40;;;13.20;79.50;;;;;;4991117;28;20042;-81
2022/03/21 09:16:27;;;;;;;6.30;3.75;;;13.30;79.40;;;;;;4976378;28;20074;-81
2022/03/21 09:18:55;;;;;;;5.18;3.40;;;13.30;79.40;;;;;;5015444;28;20061;-82
2022/03/21 09:21:23;;;;;;;5.30;3.58;;;13.40;79.70;;;;;;4973781;28;20050;-82
2022/03/21 09:23:51;;;;;;;5.20;3.80;;;13.50;79.00;;;;;;5016584;28;20619;-81
2022/03/21 09:26:21;;;;;;;5.30;3.42;;;13.60;79.00;;;;;;4991994;28;20466;-79
2022/03/21 09:28:50;;;;;;;5.22;2.92;;;13.60;77.60;;;;;;4994380;28;20042;-81
2022/03/21 09:31:18;;;;;;;5.40;3.38;;;13.70;78.50;;;;;;4991505;28;20046;-81
2022/03/21 09:34:06;;;;;;;5.75;3.30;;;13.80;78.20;;;;;;4989502;28;20050;-81
2022/03/21 09:36:34;;;;;;;6.85;3.72;;;13.60;77.60;;;;;;5012689;28;20058;-81
2022/03/21 09:39:02;;;;;;;4.55;3.25;;;13.70;77.50;;;;;;5008339;28;20100;-80
2022/03/21 09:41:32;;;;;;;5.55;3.72;;;13.80;77.20;;;;;;4993333;28;20046;-82
2022/03/21 09:44:03;;;;;;;5.15;3.20;;;13.90;76.70;;;;;;4977161;28;20062;-80
2022/03/21 09:46:31;;;;;;;4.60;3.45;;;14.00;76.20;;;;;;4988554;28;20086;-80
2022/03/21 09:49:02;;;;;;;6.78;3.85;;;14.10;77.00;;;;;;4993084;28;20046;-80
2022/03/21 09:51:31;;;;;;;4.25;2.97;;;14.20;77.60;;;;;;5009310;28;20046;-81
2022/03/21 09:54:00;;;;;;;5.13;3.60;;;14.40;77.60;;;;;;5004165;28;20518;-80
2022/03/21 09:56:29;;;;;;;4.78;3.63;;;14.40;77.00;;;;;;4995905;28;20069;-82
2022/03/21 09:58:59;;;;;;;4.03;3.50;;;14.40;76.70;;;;;;4979731;28;20047;-83
2022/03/21 10:01:29;;;;;;;5.75;4.10;;;14.40;77.10;;;;;;5005536;28;20712;-84
2022/03/21 10:03:58;;;;;;;4.65;3.17;;;14.40;75.80;;;;;;4990818;28;20042;-82
2022/03/21 10:06:32;;;;;;;3.85;3.20;;;14.50;76.10;;;;;;5004294;28;20058;-79
2022/03/21 10:09:10;;;;;;;5.07;3.53;;;14.40;76.40;;;;;;4981987;28;20088;-81
2022/03/21 10:11:39;;;;;;;5.90;3.67;;;14.40;74.70;;;;;;5009399;28;20529;-80
2022/03/21 10:14:35;;;;;;;6.15;4.22;;;14.60;74.40;;;;;;4978805;28;20038;-80
2022/03/21 10:17:08;;;;;;;6.07;4.15;;;14.70;74.70;;;;;;4984640;28;20057;-80
2022/03/21 10:19:45;;;;;;;6.40;3.53;;;14.90;74.20;;;;;;4987913;28;20038;-79
2022/03/21 10:22:14;;;;;;;;;;;15.00;73.70;;;;;;5005122;28;20054;-79
2022/03/21 10:24:44;;;;;;;4.43;3.67;;;15.10;74.20;;;;;;4984237;28;20045;-80
2022/03/21 10:27:29;;;;;;;5.05;3.60;;;15.10;73.80;;;;;;4979768;28;20096;-81
2022/03/21 10:30:01;;;;;;;11.68;3.80;;;15.20;73.30;;;;;;4979364;28;20065;-84
2022/03/21 10:32:31;;;;;;;5.05;3.60;;;15.30;73.30;;;;;;4985829;28;20141;-82
2022/03/21 10:35:06;;;;;;;5.43;3.67;;;15.40;73.50;;;;;;4992072;28;20050;-83
2022/03/21 10:37:43;;;;;;;5.60;3.65;;;15.30;73.90;;;;;;4982796;28;20109;-83
2022/03/21 10:40:23;;;;;;;5.03;3.08;;;15.50;73.90;;;;;;4979397;28;20034;-84
2022/03/21 10:42:57;;;;;;;4.22;3.47;;;15.40;72.80;;;;;;5008208;28;20034;-82
2022/03/21 10:45:44;;;;;;;4.70;3.72;;;15.70;72.80;;;;;;5003084;28;20050;-82
2022/03/21 10:48:14;;;;;;;5.53;3.63;;;15.60;71.90;;;;;;5007523;28;20111;-82
2022/03/21 10:50:44;;;;;;;5.78;3.67;;;15.70;71.70;;;;;;4976667;28;20345;-83
2022/03/21 10:53:14;;;;;;;6.05;4.47;;;15.80;71.60;;;;;;4985186;28;20046;-80
2022/03/21 10:55:44;;;;;;;4.35;3.00;;;16.00;71.80;;;;;;4975544;28;20697;-82
2022/03/21 10:58:15;;;;;;;5.07;3.38;;;16.10;72.30;;;;;;4987552;28;20082;-82
2022/03/21 11:00:44;;;;;;;4.72;3.25;;;16.10;71.20;;;;;;5006963;28;20050;-82
2022/03/21 11:03:17;;;;;;;4.50;3.30;;;16.00;71.20;;;;;;4971602;28;20417;-81
2022/03/21 11:05:46;;;;;;;5.22;4.10;;;16.10;71.20;;;;;;4987049;28;20153;-81
2022/03/21 11:08:16;;;;;;;7.18;3.78;;;16.20;70.10;;;;;;5005692;28;20042;-80
2022/03/21 11:10:45;;;;;;;8.50;3.92;;;16.30;71.20;;;;;;5013650;28;20061;-82
2022/03/21 11:13:13;;;;;;;5.72;3.67;;;16.40;70.30;;;;;;5028986;28;20050;-81
2022/03/21 11:15:41;;;;;;;7.07;3.80;;;16.40;68.30;;;;;;4990524;28;20319;-82
2022/03/21 11:18:11;;;;;;;5.03;4.15;;;16.40;69.00;;;;;;4988890;28;20038;-82
2022/03/21 11:20:39;;;;;;;3.92;3.25;;;16.50;69.40;;;;;;4981815;28;20114;-82
2022/03/21 11:23:07;;;;;;;6.07;3.95;;;16.60;70.30;;;;;;4974885;28;20048;-82
2022/03/21 11:25:38;;;;;;;4.57;3.70;;;16.70;70.60;;;;;;4988714;28;20042;-82
2022/03/21 11:28:31;;;;;;;5.78;3.65;;;16.70;68.70;;;;;;4978705;28;20050;-81
2022/03/21 11:31:16;;;;;;;5.65;3.75;;;16.80;69.70;;;;;;4988125;28;20042;-82
2022/03/21 11:33:49;;;;;;;5.00;3.67;;;17.00;68.30;;;;;;5006999;28;20097;-82
2022/03/21 11:36:17;;;;;;;7.45;4.25;;;17.00;68.60;;;;;;4996543;28;20108;-82
2022/03/21 11:38:48;;;;;;;5.18;3.67;;;16.90;67.90;;;;;;5006046;28;20073;-82
2022/03/21 11:41:21;;;;;;;6.47;4.72;;;17.00;68.40;;;;;;4990422;28;20459;-82
2022/03/21 11:44:17;;;;;;;5.20;4.45;;;17.10;67.70;;;;;;4991198;28;20053;-82
2022/03/21 11:46:47;;;;;;;7.03;4.93;;;17.00;67.60;;;;;;4995947;28;20070;-82
2022/03/21 11:49:46;;;;;;;4.88;3.85;;;17.00;68.50;;;;;;4988857;28;20122;-82
2022/03/21 11:52:14;;;;;;;5.55;4.03;;;17.20;67.70;;;;;;5003237;28;20073;-82
2022/03/21 11:54:42;;;;;;;5.57;3.85;;;17.30;66.60;;;;;;4975625;28;20049;-82
2022/03/21 11:57:24;;;;;;;4.68;3.78;;;17.50;66.80;;;;;;4987056;28;20050;-82
2022/03/21 12:00:00;;;;;;;6.72;4.03;;;17.60;67.00;;;;;;4987712;28;20051;-82
2022/03/21 12:02:55;;;;;;;8.32;4.38;;;17.70;67.20;;;;;;5005751;28;20042;-82
2022/03/21 12:05:50;;;;;;;4.65;4.00;;;17.90;67.60;;;;;;5012955;28;20045;-82
2022/03/21 12:08:48;;;;;;;4.93;3.97;;;18.00;67.20;;;;;;4985157;28;20042;-82
2022/03/21 12:12:00;;;;;;;4.70;3.85;;;18.00;67.00;;;;;;4998496;28;20529;-83
2022/03/21 12:14:37;;;;;;;4.00;3.50;;;18.10;66.30;;;;;;4986436;28;20038;-82
2022/03/21 12:17:27;;;;;;;5.75;3.90;;;18.20;65.70;;;;;;4983200;28;20034;-82
2022/03/21 12:20:08;;;;;;;7.38;4.63;;;18.30;64.90;;;;;;4988621;28;20055;-82
2022/03/21 12:23:14;;;;;;;4.75;4.00;;;18.30;65.10;;;;;;4975469;28;20112;-82
2022/03/21 12:25:47;;;;;;;5.20;4.03;;;18.30;64.70;;;;;;4987926;28;20051;-81
2022/03/21 12:28:22;;;;;;;5.25;3.60;;;18.40;63.80;;;;;;5021601;28;20081;-81
2022/03/21 12:30:50;;;;;;;5.30;3.85;;;18.50;64.90;;;;;;4986896;28;20056;-82
2022/03/21 12:33:28;;;;;;;5.95;3.78;;;18.60;64.80;;;;;;5004814;28;20114;-81
2022/03/21 12:36:05;;;;;;;4.85;4.05;;;18.70;64.60;;;;;;4989697;28;20041;-82
2022/03/21 12:38:39;;;;;;;7.05;4.18;;;18.80;64.70;;;;;;5018927;28;20432;-82
2022/03/21 12:41:09;;;;;;;4.80;4.13;;;18.90;63.90;;;;;;5011994;28;20050;-81
2022/03/21 12:43:52;;;;;;;5.55;3.70;;;18.80;64.50;;;;;;4989067;28;20109;-82
2022/03/21 12:46:20;;;;;;;4.30;3.90;;;18.90;63.80;;;;;;4989604;28;20050;-82
2022/03/21 12:48:54;;;;;;;3.88;3.33;;;18.80;64.80;;;;;;4971632;28;20120;-82
2022/03/21 12:51:32;;;;;;;6.03;4.55;;;18.70;64.60;;;;;;4993689;28;20092;-82
2022/03/21 12:54:24;;;;;;;4.15;3.53;;;18.80;64.00;;;;;;4970759;28;20046;-82
2022/03/21 12:57:04;;;;;;;4.65;3.72;;;18.90;63.60;;;;;;5014055;28;20049;-82
2022/03/21 12:59:32;;;;;;;5.15;3.70;;;19.00;64.50;;;;;;4982117;28;20116;-81
2022/03/21 13:02:00;;;;;;;7.60;4.07;;;19.20;64.30;;;;;;5012997;28;20562;-82
2022/03/21 13:13:01;;;;;;;4.50;3.75;;;19.20;63.70;;;;;;4988689;28;20052;-82
2022/03/21 13:15:35;;;;;;;10.52;8.38;;;19.20;62.60;;;;;;4974838;28;20129;-81
2022/03/21 13:18:04;;;;;;;9.65;7.78;;;19.20;63.10;;;;;;5004374;28;20051;-82
2022/03/21 13:20:34;;;;;;;6.10;5.10;;;19.10;63.10;;;;;;4971115;28;20072;-82
2022/03/21 13:23:05;;;;;;;9.30;4.63;;;19.30;64.40;;;;;;4988531;28;20058;-81
2022/03/21 13:25:39;;;;;;;5.03;4.00;;;19.40;63.50;;;;;;5005255;28;20512;-81
2022/03/21 13:28:13;;;;;;;5.57;4.40;;;19.30;62.70;;;;;;4972941;28;20046;-83
2022/03/21 13:30:56;;;;;;;4.78;4.28;;;19.40;63.60;;;;;;4996526;28;20053;-82
2022/03/21 13:33:27;;;;;;;6.15;4.45;;;19.30;63.20;;;;;;4990252;28;20041;-81
2022/03/21 13:35:58;;;;;;;5.43;4.15;;;19.30;64.20;;;;;;5006107;28;20097;-83
2022/03/21 13:38:28;;;;;;;4.47;3.83;;;19.30;63.10;;;;;;4981620;28;20104;-82